Time;durP1;ratioP1;P1;durP2;ratioP2;P2;SDS_P1;SDS_P2;PMS_P1;PMS_P2;Temp;Humidity;BMP_temperature;BMP_pressure;BME280_temperature;BME280_humidity;BME280_pressure;Samples;Min_cycle;Max_cycle;Signal;HPM_P1;HPM_P2
2022/06/12 00:01:23;;;;;;;0.77;0.50;;;;;;;-140.05;100.00;61859.38;5111375;28;20438;-63
2022/06/12 00:03:51;;;;;;;0.53;0.50;;;;;;;-140.05;100.00;61859.38;5111457;28;20462;-62
2022/06/12 00:06:20;;;;;;;0.20;0.20;;;;;;;-140.05;100.00;61859.38;5097236;28;20879;-63
2022/06/12 00:08:47;;;;;;;0.67;0.60;;;;;;;-140.05;100.00;61859.38;5098910;28;20441;-63
2022/06/12 00:11:23;;;;;;;0.33;0.33;;;;;;;-140.05;100.00;61859.38;5110546;28;20436;-65
2022/06/12 00:14:11;;;;;;;0.40;0.40;;;;;;;-140.05;100.00;61859.38;5111219;28;21198;-62
2022/06/12 00:16:41;;;;;;;1.10;0.90;;;;;;;-140.05;100.00;61859.38;5090680;28;20436;-62
2022/06/12 00:19:08;;;;;;;0.30;0.30;;;;;;;-140.05;100.00;61859.38;5104617;28;20623;-63
2022/06/12 00:21:36;;;;;;;0.23;0.23;;;;;;;-140.05;100.00;61859.38;5090337;28;20864;-63
2022/06/12 00:24:07;;;;;;;0.67;0.50;;;;;;;-140.05;100.00;61859.38;5102782;28;20451;-62
2022/06/12 00:26:42;;;;;;;0.50;0.50;;;;;;;-140.05;100.00;61859.38;5110495;28;20498;-62
2022/06/12 00:29:11;;;;;;;0.97;0.47;;;;;;;-140.05;100.00;61859.38;5098544;28;20474;-62
2022/06/12 00:31:48;;;;;;;0.83;0.83;;;;;;;-140.05;100.00;61859.38;5108944;28;20724;-64
2022/06/12 00:34:18;;;;;;;0.70;0.70;;;;;;;-140.05;100.00;61859.38;5110786;28;20535;-63
2022/06/12 00:36:45;;;;;;;0.37;0.37;;;;;;;-140.05;100.00;61859.38;5110470;28;20978;-62
2022/06/12 00:39:15;;;;;;;0.27;0.27;;;;;;;-140.05;100.00;61859.38;5110669;28;21084;-62
2022/06/12 00:41:47;;;;;;;0.40;0.40;;;;;;;-140.05;100.00;61859.38;5110380;28;20453;-62
2022/06/12 00:44:18;;;;;;;1.33;1.13;;;;;;;-140.05;100.00;61859.38;5110806;28;20432;-61
2022/06/12 00:47:15;;;;;;;0.83;0.83;;;;;;;-140.05;100.00;61859.38;5108803;28;20441;-62
2022/06/12 00:49:56;;;;;;;0.30;0.30;;;;;;;-140.05;100.00;61859.38;5093287;28;20447;-63
2022/06/12 00:52:35;;;;;;;0.63;0.50;;;;;;;-140.05;100.00;61859.38;5109992;28;20440;-62
2022/06/12 00:55:14;;;;;;;0.73;0.73;;;;;;;-140.05;100.00;61859.38;5110472;28;20471;-62
2022/06/12 00:57:41;;;;;;;1.10;0.67;;;;;;;-140.05;100.00;61859.38;5104785;28;20504;-63
2022/06/12 01:00:13;;;;;;;0.87;0.57;;;;;;;-140.05;100.00;61859.38;5101464;28;20492;-63
2022/06/12 01:02:41;;;;;;;0.40;0.40;;;;;;;-140.05;100.00;61859.38;5109859;28;20521;-63
2022/06/12 01:08:01;;;;;;;0.83;0.57;;;;;;;-140.05;100.00;61859.38;5109979;28;20531;-62
2022/06/12 01:10:29;;;;;;;0.10;0.10;;;;;;;-140.05;100.00;61859.38;5110424;28;20439;-62
2022/06/12 01:13:01;;;;;;;0.17;0.17;;;;;;;-140.05;100.00;61859.38;5104942;28;20475;-63
2022/06/12 01:15:40;;;;;;;0.30;0.30;;;;;;;-140.05;100.00;61859.38;5101077;28;20452;-62
2022/06/12 01:18:11;;;;;;;6.70;2.07;;;;;;;-140.05;100.00;61859.38;5095227;28;20998;-61
2022/06/12 01:20:53;;;;;;;0.57;0.37;;;;;;;-140.05;100.00;61859.38;5109837;28;20454;-62
2022/06/12 01:23:31;;;;;;;0.90;0.70;;;;;;;-140.05;100.00;61859.38;5096114;28;20433;-62
2022/06/12 01:26:08;;;;;;;0.13;0.13;;;;;;;-140.05;100.00;61859.38;5095268;28;20533;-62
2022/06/12 01:29:00;;;;;;;0.50;0.50;;;;;;;-140.05;100.00;61859.38;5096960;28;20482;-63
2022/06/12 01:31:30;;;;;;;1.57;1.33;;;;;;;-140.05;100.00;61859.38;5109080;28;20962;-63
2022/06/12 01:34:21;;;;;;;0.40;0.40;;;;;;;-140.05;100.00;61859.38;5110191;28;20432;-62
2022/06/12 01:37:13;;;;;;;0.10;0.10;;;;;;;-140.05;100.00;61859.38;5094992;28;20440;-63
2022/06/12 01:39:58;;;;;;;0.27;0.27;;;;;;;-140.05;100.00;61859.38;5109255;28;20443;-63
2022/06/12 01:42:37;;;;;;;0.33;0.30;;;;;;;-140.05;100.00;61859.38;5099477;28;20498;-63
2022/06/12 01:45:10;;;;;;;0.50;0.50;;;;;;;-140.05;100.00;61859.38;5106534;28;20458;-63
2022/06/12 01:47:51;;;;;;;0.73;0.73;;;;;;;-140.05;100.00;61859.38;5101356;28;20517;-65
2022/06/12 01:50:42;;;;;;;0.43;0.43;;;;;;;-140.05;100.00;61859.38;5106233;28;20444;-65
2022/06/12 01:53:17;;;;;;;0.90;0.83;;;;;;;-140.05;100.00;61859.38;5109366;28;20432;-63
2022/06/12 01:55:44;;;;;;;1.20;0.47;;;;;;;-140.05;100.00;61859.38;5094810;28;20447;-64
2022/06/12 01:58:20;;;;;;;0.30;0.30;;;;;;;-140.05;100.00;61859.38;5097392;28;20525;-63
2022/06/12 02:00:54;;;;;;;0.40;0.40;;;;;;;-140.05;100.00;61859.38;5088489;28;20440;-64
2022/06/12 02:03:40;;;;;;;0.67;0.67;;;;;;;-140.05;100.00;61859.38;5099290;28;20592;-63
2022/06/12 02:06:34;;;;;;;0.33;0.33;;;;;;;-140.05;100.00;61859.38;5104053;28;20503;-63
2022/06/12 02:09:16;;;;;;;3.10;0.33;;;;;;;-140.05;100.00;61859.38;5100655;28;20821;-63
2022/06/12 02:14:46;;;;;;;0.73;0.50;;;;;;;-140.05;100.00;61859.38;5089746;28;20453;-63
2022/06/12 02:17:19;;;;;;;0.47;0.47;;;;;;;-140.05;100.00;61859.38;5101588;28;20543;-62
2022/06/12 02:19:48;;;;;;;0.37;0.37;;;;;;;-140.05;100.00;61859.38;5110578;28;20981;-63
2022/06/12 02:22:23;;;;;;;0.20;0.20;;;;;;;-140.05;100.00;61859.38;5097266;28;20506;-65
2022/06/12 02:25:01;;;;;;;0.20;0.20;;;;;;;-140.05;100.00;61859.38;5102329;28;20473;-63
2022/06/12 02:27:35;;;;;;;1.80;0.70;;;;;;;-140.05;100.00;61859.38;5101232;28;20550;-65
2022/06/12 02:30:09;;;;;;;0.83;0.70;;;;;;;-140.05;100.00;61859.38;5093957;28;20954;-63
2022/06/12 02:33:12;;;;;;;0.83;0.83;;;;;;;-140.05;100.00;61859.38;5108789;28;21041;-63
2022/06/12 02:35:43;;;;;;;0.20;0.20;;;;;;;-140.05;100.00;61859.38;5090928;28;21022;-62
2022/06/12 02:38:25;;;;;;;0.50;0.50;;;;;;;-140.05;100.00;61859.38;5107663;28;20547;-63
2022/06/12 02:40:58;;;;;;;0.50;0.50;;;;;;;-140.05;100.00;61859.38;5107664;28;21012;-63
2022/06/12 02:43:30;;;;;;;0.57;0.57;;;;;;;-140.05;100.00;61859.38;5106635;28;20904;-63
2022/06/12 02:46:13;;;;;;;1.03;0.60;;;;;;;-140.05;100.00;61859.38;5097129;28;20483;-63
2022/06/12 02:48:41;;;;;;;0.53;0.53;;;;;;;-140.05;100.00;61859.38;5093242;28;20939;-63
2022/06/12 02:51:45;;;;;;;0.60;0.60;;;;;;;-140.05;100.00;61859.38;5108628;28;20436;-62
2022/06/12 02:54:32;;;;;;;0.30;0.30;;;;;;;-140.05;100.00;61859.38;5094936;28;20442;-62
2022/06/12 02:57:27;;;;;;;0.50;0.47;;;;;;;-140.05;100.00;61859.38;5107825;28;20521;-64
2022/06/12 03:00:12;;;;;;;0.40;0.40;;;;;;;-140.05;100.00;61859.38;5097388;28;20448;-64
2022/06/12 03:03:11;;;;;;;0.20;0.20;;;;;;;-140.05;100.00;61859.38;5107498;28;20432;-62
2022/06/12 03:05:42;;;;;;;0.63;0.63;;;;;;;-140.05;100.00;61859.38;5107602;28;20472;-64
2022/06/12 03:08:16;;;;;;;0.50;0.50;;;;;;;-140.05;100.00;61859.38;5100666;28;20448;-63
2022/06/12 03:10:52;;;;;;;0.30;0.30;;;;;;;-140.05;100.00;61859.38;5088159;28;20448;-64
2022/06/12 03:13:21;;;;;;;0.53;0.53;;;;;;;-140.05;100.00;61859.38;5107954;28;20453;-62
2022/06/12 03:15:59;;;;;;;0.67;0.67;;;;;;;-140.05;100.00;61859.38;5108078;28;20556;-61
2022/06/12 03:18:31;;;;;;;6.23;0.93;;;;;;;-140.05;100.00;61859.38;5099356;28;20906;-61
2022/06/12 03:21:10;;;;;;;0.40;0.40;;;;;;;-140.05;100.00;61859.38;5087237;28;20445;-61
2022/06/12 03:24:04;;;;;;;0.33;0.33;;;;;;;-140.05;100.00;61859.38;5096018;28;20966;-64
2022/06/12 03:26:50;;;;;;;0.73;0.73;;;;;;;-140.05;100.00;61859.38;5102934;28;20465;-60
2022/06/12 03:29:29;;;;;;;0.30;0.30;;;;;;;-140.05;100.00;61859.38;5105393;28;20464;-60
2022/06/12 03:32:23;;;;;;;0.40;0.40;;;;;;;-140.05;100.00;61859.38;5098698;28;20535;-62
2022/06/12 03:34:55;;;;;;;0.33;0.33;;;;;;;-140.05;100.00;61859.38;5090341;28;20464;-61
2022/06/12 03:37:31;;;;;;;0.50;0.50;;;;;;;-140.05;100.00;61859.38;5111675;28;20467;-62
2022/06/12 03:40:34;;;;;;;0.37;0.37;;;;;;;-140.05;100.00;61859.38;5111862;28;20997;-62
2022/06/12 03:43:36;;;;;;;0.73;0.70;;;;;;;-140.05;100.00;61859.38;5111023;28;20847;-61
2022/06/12 03:46:18;;;;;;;0.60;0.60;;;;;;;-140.05;100.00;61859.38;5077881;28;20448;-62
2022/06/12 03:48:55;;;;;;;0.97;0.83;;;;;;;-140.05;100.00;61859.38;5095141;28;20472;-63
2022/06/12 03:51:31;;;;;;;0.40;0.33;;;;;;;-140.05;100.00;61859.38;5111849;28;20435;-63
2022/06/12 03:54:34;;;;;;;0.30;0.23;;;;;;;-140.05;100.00;61859.38;5111273;28;20810;-62
2022/06/12 04:00:00;;;;;;;0.80;0.73;;;;;;;-140.05;100.00;61859.38;5100225;28;20499;-63
2022/06/12 04:02:39;;;;;;;0.30;0.30;;;;;;;-140.05;100.00;61859.38;5111078;28;20462;-62
2022/06/12 04:05:09;;;;;;;0.80;0.80;;;;;;;-140.05;100.00;61859.38;5111527;28;20548;-63
2022/06/12 04:07:45;;;;;;;1.00;0.60;;;;;;;-140.05;100.00;61859.38;5110789;28;20440;-63
2022/06/12 04:10:19;;;;;;;0.90;0.90;;;;;;;-140.05;100.00;61859.38;5111003;28;20436;-63
2022/06/12 04:12:47;;;;;;;1.27;1.00;;;;;;;-140.05;100.00;61859.38;5110707;28;21166;-63
2022/06/12 04:15:33;;;;;;;0.30;0.27;;;;;;;-140.05;100.00;61859.38;5101590;28;20951;-63
2022/06/12 04:18:00;;;;;;;0.50;0.50;;;;;;;-140.05;100.00;61859.38;5109316;28;20447;-63
2022/06/12 04:20:48;;;;;;;0.57;0.57;;;;;;;-140.05;100.00;61859.38;5111490;28;20443;-64
2022/06/12 04:23:22;;;;;;;0.60;0.60;;;;;;;-140.05;100.00;61859.38;5110828;28;20438;-69
2022/06/12 04:25:55;;;;;;;0.30;0.30;;;;;;;-140.05;100.00;61859.38;5097619;28;20468;-66
2022/06/12 04:28:29;;;;;;;1.10;0.67;;;;;;;-140.05;100.00;61859.38;5110889;28;20879;-64
2022/06/12 04:30:57;;;;;;;0.60;0.60;;;;;;;-140.05;100.00;61859.38;5111110;28;20442;-71
2022/06/12 04:33:46;;;;;;;1.20;0.83;;;;;;;-140.05;100.00;61859.38;5090638;28;20468;-69
2022/06/12 04:36:13;;;;;;;0.43;0.43;;;;;;;-140.05;100.00;61859.38;5105247;28;20432;-70
2022/06/12 04:38:41;;;;;;;1.43;1.23;;;;;;;-140.05;100.00;61859.38;5110570;28;20479;-71
2022/06/12 04:41:08;;;;;;;0.60;0.60;;;;;;;-140.05;100.00;61859.38;5097600;28;20441;-66
2022/06/12 04:43:35;;;;;;;0.30;0.30;;;;;;;-140.05;100.00;61859.38;5109713;28;20493;-72
2022/06/12 04:46:03;;;;;;;0.57;0.57;;;;;;;-140.05;100.00;61859.38;5099359;28;21339;-70
2022/06/12 04:48:40;;;;;;;0.50;0.50;;;;;;;-140.05;100.00;61859.38;5093477;28;20498;-67
2022/06/12 04:51:09;;;;;;;0.50;0.50;;;;;;;-140.05;100.00;61859.38;5101041;28;20457;-72
2022/06/12 04:53:36;;;;;;;1.17;1.07;;;;;;;-140.05;100.00;61859.38;5103689;28;20428;-71
2022/06/12 04:56:04;;;;;;;1.10;0.77;;;;;;;-140.05;100.00;61859.38;5089030;28;20436;-70
2022/06/12 04:58:30;;;;;;;0.57;0.57;;;;;;;-140.05;100.00;61859.38;5092401;28;20472;-71
2022/06/12 05:00:58;;;;;;;0.73;0.40;;;;;;;-140.05;100.00;61859.38;5108563;28;20437;-70
2022/06/12 05:03:25;;;;;;;0.97;0.97;;;;;;;-140.05;100.00;61859.38;5110091;28;20444;-67
2022/06/12 05:05:51;;;;;;;0.30;0.30;;;;;;;-140.05;100.00;61859.38;5107775;28;20986;-68
2022/06/12 05:08:19;;;;;;;0.33;0.33;;;;;;;-140.05;100.00;61859.38;5089638;28;20453;-70
2022/06/12 05:10:46;;;;;;;0.50;0.50;;;;;;;-140.05;100.00;61859.38;5105578;28;20441;-69
2022/06/12 05:13:13;;;;;;;0.67;0.67;;;;;;;-140.05;100.00;61859.38;5094822;28;21016;-73
2022/06/12 05:15:40;;;;;;;0.57;0.57;;;;;;;-140.05;100.00;61859.38;5110684;27;20436;-72
2022/06/12 05:18:09;;;;;;;0.70;0.67;;;;;;;-140.05;100.00;61859.38;5108513;28;20443;-75
2022/06/12 05:20:37;;;;;;;0.67;0.43;;;;;;;-140.05;100.00;61859.38;5090598;28;20433;-70
2022/06/12 05:23:05;;;;;;;0.77;0.77;;;;;;;-140.05;100.00;61859.38;5104246;28;20468;-67
2022/06/12 05:25:32;;;;;;;1.27;1.17;;;;;;;-140.05;100.00;61859.38;5103178;28;20889;-70
2022/06/12 05:28:01;;;;;;;1.43;1.07;;;;;;;-140.05;100.00;61859.38;5102655;28;20444;-71
2022/06/12 05:30:30;;;;;;;0.43;0.43;;;;;;;-140.05;100.00;61859.38;5096460;28;20470;-67
2022/06/12 05:32:59;;;;;;;0.57;0.53;;;;;;;-140.05;100.00;61859.38;5100235;28;20445;-71
2022/06/12 05:35:28;;;;;;;0.67;0.67;;;;;;;-140.05;100.00;61859.38;5093551;28;20966;-70
2022/06/12 05:37:56;;;;;;;2.07;1.87;;;;;;;-140.05;100.00;61859.38;5109787;28;20505;-69
2022/06/12 05:40:27;;;;;;;0.77;0.77;;;;;;;-140.05;100.00;61859.38;5092328;28;20500;-72
2022/06/12 05:42:54;;;;;;;2.97;0.53;;;;;;;-140.05;100.00;61859.38;5099333;28;20517;-70
2022/06/12 05:45:24;;;;;;;1.30;1.20;;;;;;;-140.05;100.00;61859.38;5095381;28;20445;-69
2022/06/12 05:47:58;;;;;;;1.47;1.37;;;;;;;-140.05;100.00;61859.38;5097532;28;20441;-72
2022/06/12 05:50:29;;;;;;;1.17;1.07;;;;;;;-140.05;100.00;61859.38;5086853;28;20498;-73
2022/06/12 05:52:57;;;;;;;0.57;0.57;;;;;;;-140.05;100.00;61859.38;5087631;28;20506;-73
2022/06/12 05:55:25;;;;;;;0.83;0.83;;;;;;;-140.05;100.00;61859.38;5088207;28;20502;-69
2022/06/12 05:57:52;;;;;;;0.47;0.47;;;;;;;-140.05;100.00;61859.38;5098670;28;20441;-69
2022/06/12 06:00:25;;;;;;;0.97;0.50;;;;;;;-140.05;100.00;61859.38;5101980;28;20487;-68
2022/06/12 06:02:52;;;;;;;0.90;0.90;;;;;;;-140.05;100.00;61859.38;5087906;28;20959;-70
2022/06/12 06:05:20;;;;;;;1.40;1.30;;;;;;;-140.05;100.00;61859.38;5096524;28;20433;-68
2022/06/12 06:07:46;;;;;;;0.37;0.30;;;;;;;-140.05;100.00;61859.38;5107933;28;20475;-67
2022/06/12 06:10:18;;;;;;;0.33;0.33;;;;;;;-140.05;100.00;61859.38;5100866;28;20594;-71
2022/06/12 06:12:45;;;;;;;0.73;0.73;;;;;;;-140.05;100.00;61859.38;5101160;28;20498;-73
2022/06/12 06:15:13;;;;;;;1.33;0.93;;;;;;;-140.05;100.00;61859.38;5093467;28;20436;-70
2022/06/12 06:17:41;;;;;;;0.33;0.33;;;;;;;-140.05;100.00;61859.38;5108262;27;20440;-68
2022/06/12 06:20:11;;;;;;;0.97;0.93;;;;;;;-140.05;100.00;61859.38;5107838;28;20523;-75
2022/06/12 06:22:38;;;;;;;0.63;0.63;;;;;;;-140.05;100.00;61859.38;5107916;28;21048;-71
2022/06/12 06:25:05;;;;;;;0.50;0.50;;;;;;;-140.05;100.00;61859.38;5090047;28;20218;-71
2022/06/12 06:27:32;;;;;;;0.97;0.97;;;;;;;-140.05;100.00;61859.38;5087584;28;20518;-73
2022/06/12 06:29:59;;;;;;;0.47;0.47;;;;;;;-140.05;100.00;61859.38;5103062;28;20436;-70
2022/06/12 06:32:26;;;;;;;2.77;2.27;;;;;;;-140.05;100.00;61859.38;5100046;28;20441;-72
2022/06/12 06:34:53;;;;;;;0.60;0.60;;;;;;;-140.05;100.00;61859.38;5101326;28;20432;-70
2022/06/12 06:37:20;;;;;;;0.60;0.60;;;;;;;-140.05;100.00;61859.38;5087117;28;20436;-69
2022/06/12 06:39:47;;;;;;;1.70;0.90;;;;;;;-140.05;100.00;61859.38;5087056;28;20484;-68
2022/06/12 06:42:14;;;;;;;0.77;0.50;;;;;;;-140.05;100.00;61859.38;5086659;28;20437;-69
2022/06/12 06:47:29;;;;;;;0.77;0.77;;;;;;;-140.05;100.00;61859.38;5087581;28;20472;-72
2022/06/12 06:49:56;;;;;;;0.80;0.80;;;;;;;-140.05;100.00;61859.38;5086980;28;20433;-70
2022/06/12 06:52:23;;;;;;;0.60;0.60;;;;;;;-140.05;100.00;61859.38;5100801;28;20441;-70
2022/06/12 06:54:49;;;;;;;0.40;0.40;;;;;;;-140.05;100.00;61859.38;5098641;28;20489;-66
2022/06/12 06:57:16;;;;;;;0.80;0.80;;;;;;;-140.05;100.00;61859.38;5103474;28;20518;-71
2022/06/12 06:59:43;;;;;;;0.60;0.53;;;;;;;-140.05;100.00;61859.38;5094803;28;20535;-69
2022/06/12 07:02:13;;;;;;;0.30;0.23;;;;;;;-140.05;100.00;61859.38;5106732;28;20440;-67
2022/06/12 07:04:40;;;;;;;0.60;0.60;;;;;;;-140.05;100.00;61859.38;5103911;28;20457;-70
2022/06/12 07:07:08;;;;;;;0.90;0.90;;;;;;;-140.05;100.00;61859.38;5095911;28;20913;-66
2022/06/12 07:09:37;;;;;;;0.47;0.33;;;;;;;-140.05;100.00;61859.38;5092642;28;20452;-66
2022/06/12 07:12:04;;;;;;;0.80;0.80;;;;;;;-140.05;100.00;61859.38;5106996;28;20447;-66
2022/06/12 07:14:31;;;;;;;0.63;0.63;;;;;;;-140.05;100.00;61859.38;5093086;28;20452;-66
2022/06/12 07:16:59;;;;;;;0.57;0.57;;;;;;;-140.05;100.00;61859.38;5106818;28;20209;-66
2022/06/12 07:19:27;;;;;;;1.10;0.80;;;;;;;-140.05;100.00;61859.38;5106332;28;20198;-66
2022/06/12 07:21:54;;;;;;;1.07;1.00;;;;;;;-140.05;100.00;61859.38;5088186;28;20191;-64
2022/06/12 07:24:26;;;;;;;0.50;0.50;;;;;;;-140.05;100.00;61859.38;5097610;28;20522;-64
2022/06/12 07:26:53;;;;;;;0.70;0.70;;;;;;;-140.05;100.00;61859.38;5103283;28;20195;-65
2022/06/12 07:29:21;;;;;;;0.67;0.60;;;;;;;-140.05;100.00;61859.38;5096991;28;20729;-64
2022/06/12 07:31:48;;;;;;;0.70;0.50;;;;;;;-140.05;100.00;61859.38;5105649;28;20199;-65
2022/06/12 07:34:16;;;;;;;1.07;0.67;;;;;;;-140.05;100.00;61859.38;5095574;28;20440;-65
2022/06/12 07:36:47;;;;;;;0.70;0.53;;;;;;;-140.05;100.00;61859.38;5106542;28;20279;-67
2022/06/12 07:39:19;;;;;;;0.80;0.80;;;;;;;-140.05;100.00;61859.38;5093815;28;20226;-66
2022/06/12 07:41:49;;;;;;;1.33;0.83;;;;;;;-140.05;100.00;61859.38;5106919;28;20206;-67
2022/06/12 07:44:20;;;;;;;0.60;0.60;;;;;;;-140.05;100.00;61859.38;5092893;28;20625;-67
2022/06/12 07:46:49;;;;;;;3.07;1.20;;;;;;;-140.05;100.00;61859.38;5104789;28;20609;-71
2022/06/12 07:49:17;;;;;;;0.87;0.53;;;;;;;-140.05;100.00;61859.38;5086391;28;20222;-66
2022/06/12 07:51:44;;;;;;;0.30;0.30;;;;;;;-140.05;100.00;61859.38;5100698;28;20239;-69
2022/06/12 07:54:12;;;;;;;0.30;0.30;;;;;;;-140.05;100.00;61859.38;5088862;28;20190;-69
2022/06/12 07:56:41;;;;;;;0.70;0.70;;;;;;;-140.05;100.00;61859.38;5106727;28;20206;-70
2022/06/12 07:59:09;;;;;;;1.07;0.80;;;;;;;-140.05;100.00;61859.38;5092366;28;20226;-69
2022/06/12 08:01:37;;;;;;;1.67;1.17;;;;;;;-140.05;100.00;61859.38;5088056;28;20273;-63
2022/06/12 08:04:07;;;;;;;1.00;1.00;;;;;;;-140.05;100.00;61859.38;5089423;28;20189;-66
2022/06/12 08:06:35;;;;;;;0.60;0.60;;;;;;;-140.05;100.00;61859.38;5090506;28;20743;-65
2022/06/12 08:09:07;;;;;;;0.60;0.53;;;;;;;-140.05;100.00;61859.38;5102226;28;20247;-67
2022/06/12 08:11:35;;;;;;;3.10;2.80;;;;;;;-140.05;100.00;61859.38;5097382;28;20191;-71
2022/06/12 08:14:02;;;;;;;2.37;2.17;;;;;;;-140.05;100.00;61859.38;5103130;28;20199;-65
2022/06/12 08:16:34;;;;;;;11.97;8.30;;;;;;;-140.05;100.00;61859.38;5092302;28;20753;-61
2022/06/12 08:19:01;;;;;;;1.67;1.57;;;;;;;-140.05;100.00;61859.38;5089980;28;20244;-63
2022/06/12 08:21:28;;;;;;;1.90;1.70;;;;;;;-140.05;100.00;61859.38;5095952;28;20692;-64
2022/06/12 08:23:58;;;;;;;1.90;1.77;;;;;;;-140.05;100.00;61859.38;5097539;28;20445;-65
2022/06/12 08:26:30;;;;;;;0.77;0.77;;;;;;;-140.05;100.00;61859.38;5088934;28;20223;-66
2022/06/12 08:29:07;;;;;;;0.40;0.40;;;;;;;-140.05;100.00;61859.38;5089088;28;20735;-65
2022/06/12 08:31:40;;;;;;;0.67;0.63;;;;;;;-140.05;100.00;61859.38;5102191;28;20294;-62
2022/06/12 08:34:12;;;;;;;1.40;1.27;;;;;;;-140.05;100.00;61859.38;5100773;28;20688;-66
2022/06/12 08:36:39;;;;;;;0.40;0.40;;;;;;;-140.05;100.00;61859.38;5110015;28;20198;-66
2022/06/12 08:39:08;;;;;;;1.50;1.40;;;;;;;-140.05;100.00;61859.38;5096355;28;20201;-62
2022/06/12 08:41:54;;;;;;;3.27;2.97;;;;;;;-140.05;100.00;61859.38;5105522;28;20273;-66
2022/06/12 08:44:26;;;;;;;4.57;4.13;;;;;;;-140.05;100.00;61859.38;5089652;28;20678;-66
2022/06/12 08:47:08;;;;;;;1.77;1.67;;;;;;;-140.05;100.00;61859.38;5097208;28;20218;-67
2022/06/12 08:49:52;;;;;;;5.20;3.17;;;;;;;-140.05;100.00;61859.38;5099789;28;20267;-64
2022/06/12 08:52:19;;;;;;;3.27;2.97;;;;;;;-140.05;100.00;61859.38;5093252;28;20202;-65
2022/06/12 08:54:52;;;;;;;6.73;5.83;;;;;;;-140.05;100.00;61859.38;5096943;28;20244;-65
2022/06/12 08:57:28;;;;;;;1.40;1.30;;;;;;;-140.05;100.00;61859.38;5102908;28;20621;-64
2022/06/12 09:00:04;;;;;;;0.57;0.57;;;;;;;-140.05;100.00;61859.38;5098698;28;20294;-66
2022/06/12 09:02:35;;;;;;;0.77;0.77;;;;;;;-140.05;100.00;61859.38;5091611;28;20207;-63
2022/06/12 09:05:05;;;;;;;0.80;0.80;;;;;;;-140.05;100.00;61859.38;5097846;28;20203;-68
2022/06/12 09:08:00;;;;;;;1.33;0.97;;;;;;;-140.05;100.00;61859.38;5109334;28;20673;-67
2022/06/12 09:10:44;;;;;;;0.73;0.73;;;;;;;-140.05;100.00;61859.38;5109376;28;20209;-63
2022/06/12 09:13:25;;;;;;;0.67;0.63;;;;;;;-140.05;100.00;61859.38;5095400;28;20664;-70
2022/06/12 09:16:10;;;;;;;1.67;1.23;;;;;;;-140.05;100.00;61859.38;5094167;28;20206;-66
2022/06/12 09:18:47;;;;;;;0.90;0.53;;;;;;;-140.05;100.00;61859.38;5109269;28;20260;-65
2022/06/12 09:21:38;;;;;;;0.87;0.87;;;;;;;-140.05;100.00;61859.38;5108343;28;20226;-68
2022/06/12 09:24:14;;;;;;;2.60;1.97;;;;;;;-140.05;100.00;61859.38;5096110;28;20216;-66
2022/06/12 09:27:01;;;;;;;1.27;1.17;;;;;;;-140.05;100.00;61859.38;5093633;28;20265;-66
2022/06/12 09:29:46;;;;;;;3.40;2.43;;;;;;;-140.05;100.00;61859.38;5108283;28;20205;-67
2022/06/12 09:32:50;;;;;;;4.83;2.83;;;;;;;-140.05;100.00;61859.38;5108225;28;20205;-68
2022/06/12 09:35:29;;;;;;;1.13;1.03;;;;;;;-140.05;100.00;61859.38;5095035;28;20276;-68
2022/06/12 09:41:09;;;;;;;1.40;1.27;;;;;;;-140.05;100.00;61859.38;5107177;28;20865;-67
2022/06/12 09:43:36;;;;;;;1.07;0.97;;;;;;;-140.05;100.00;61859.38;5108351;28;20281;-70
2022/06/12 09:46:15;;;;;;;0.70;0.70;;;;;;;-140.05;100.00;61859.38;5108705;28;20665;-69
2022/06/12 09:48:52;;;;;;;0.30;0.30;;;;;;;-140.05;100.00;61859.38;5093545;28;20257;-67
2022/06/12 09:52:07;;;;;;;1.57;1.33;;;;;;;-140.05;100.00;61859.38;5108495;28;20285;-67
2022/06/12 09:54:45;;;;;;;0.60;0.60;;;;;;;-140.05;100.00;61859.38;5093897;28;20198;-69
2022/06/12 09:57:19;;;;;;;0.47;0.47;;;;;;;-140.05;100.00;61859.38;5107062;28;20277;-67
2022/06/12 09:59:57;;;;;;;0.90;0.90;;;;;;;-140.05;100.00;61859.38;5088109;28;20693;-69
2022/06/12 10:03:00;;;;;;;1.23;0.63;;;;;;;-140.05;100.00;61859.38;5103395;28;20273;-66
2022/06/12 10:05:31;;;;;;;0.33;0.33;;;;;;;-140.05;100.00;61859.38;5108525;28;20194;-68
2022/06/12 10:08:03;;;;;;;1.13;1.03;;;;;;;-140.05;100.00;61859.38;5108789;28;20209;-67
2022/06/12 10:10:41;;;;;;;1.50;0.87;;;;;;;-140.05;100.00;61859.38;5095976;28;20206;-65
2022/06/12 10:13:13;;;;;;;1.43;1.13;;;;;;;-140.05;100.00;61859.38;5087231;28;20187;-68
2022/06/12 10:15:44;;;;;;;6.87;4.73;;;;;;;-140.05;100.00;61859.38;5086544;28;20678;-68
2022/06/12 10:18:30;;;;;;;4.53;2.93;;;;;;;-140.05;100.00;61859.38;5086710;28;20581;-68
2022/06/12 10:21:03;;;;;;;0.57;0.57;;;;;;;-140.05;100.00;61859.38;5086539;28;20211;-70
2022/06/12 10:23:30;;;;;;;0.33;0.33;;;;;;;-140.05;100.00;61859.38;5086419;28;20199;-70
2022/06/12 10:25:59;;;;;;;0.70;0.70;;;;;;;-140.05;100.00;61859.38;5086048;28;20226;-69
2022/06/12 10:28:36;;;;;;;0.70;0.70;;;;;;;-140.05;100.00;61859.38;5086438;28;20194;-70
2022/06/12 10:31:09;;;;;;;0.70;0.70;;;;;;;-140.05;100.00;61859.38;5086566;28;20203;-73
2022/06/12 10:33:42;;;;;;;0.60;0.47;;;;;;;-140.05;100.00;61859.38;5086099;28;20191;-69
2022/06/12 10:36:18;;;;;;;0.73;0.73;;;;;;;-140.05;100.00;61859.38;5086436;28;20669;-69
2022/06/12 10:38:45;;;;;;;0.83;0.83;;;;;;;-140.05;100.00;61859.38;5086721;28;20299;-70
2022/06/12 10:41:44;;;;;;;0.60;0.60;;;;;;;-140.05;100.00;61859.38;5087004;28;20231;-68
2022/06/12 10:44:31;;;;;;;0.40;0.40;;;;;;;-140.05;100.00;61859.38;5086887;28;20230;-71
2022/06/12 10:47:26;;;;;;;0.77;0.77;;;;;;;-140.05;100.00;61859.38;5086711;28;20195;-74
2022/06/12 10:50:21;;;;;;;208.40;153.10;;;;;;;-140.05;100.00;61859.38;5086682;28;20276;-71
2022/06/12 10:52:55;;;;;;;30.53;26.37;;;;;;;-140.05;100.00;61859.38;5087433;28;20191;-71
2022/06/12 10:55:51;;;;;;;9.27;6.13;;;;;;;-140.05;100.00;61859.38;5087508;28;20248;-70
2022/06/12 10:58:39;;;;;;;62.43;49.30;;;;;;;-140.05;100.00;61859.38;5085680;28;20252;-70
2022/06/12 11:01:31;;;;;;;12.50;10.17;;;;;;;-140.05;100.00;61859.38;5101268;28;20219;-71
2022/06/12 11:04:17;;;;;;;189.77;138.40;;;;;;;-140.05;100.00;61859.38;5101339;28;20202;-72
2022/06/12 11:07:03;;;;;;;58.20;46.87;;;;;;;-140.05;100.00;61859.38;5097581;28;20196;-70
2022/06/12 11:09:36;;;;;;;456.93;341.87;;;;;;;-140.05;100.00;61859.38;5093005;28;20190;-74
2022/06/12 11:12:32;;;;;;;98.63;80.40;;;;;;;-140.05;100.00;61859.38;5107296;28;20255;-69
2022/06/12 11:15:25;;;;;;;5.83;4.37;;;;;;;-140.05;100.00;61859.38;5107332;27;20225;-72
2022/06/12 11:18:18;;;;;;;9.57;8.43;;;;;;;-140.05;100.00;61859.38;5105043;28;20195;-70
2022/06/12 11:21:22;;;;;;;8.60;6.73;;;;;;;-140.05;100.00;61859.38;5107537;28;20313;-69
2022/06/12 11:24:02;;;;;;;1.10;1.10;;;;;;;-140.05;100.00;61859.38;5097125;28;20197;-70
2022/06/12 11:27:09;;;;;;;3.43;1.23;;;;;;;-140.05;100.00;61859.38;5106495;28;20253;-69
2022/06/12 11:29:57;;;;;;;3.50;1.70;;;;;;;-140.05;100.00;61859.38;5093029;28;20202;-70
2022/06/12 11:32:54;;;;;;;0.53;0.53;;;;;;;-140.05;100.00;61859.38;5107187;28;20194;-70
2022/06/12 11:35:27;;;;;;;1.37;1.27;;;;;;;-140.05;100.00;61859.38;5094233;28;20244;-69
2022/06/12 11:38:09;;;;;;;0.93;0.77;;;;;;;-140.05;100.00;61859.38;5092563;28;20194;-71
2022/06/12 11:40:38;;;;;;;1.07;0.83;;;;;;;-140.05;100.00;61859.38;5106534;28;20227;-71
2022/06/12 11:43:14;;;;;;;1.13;0.70;;;;;;;-140.05;100.00;61859.38;5106199;28;20187;-70
2022/06/12 11:46:07;;;;;;;0.30;0.30;;;;;;;-140.05;100.00;61859.38;5106744;28;20273;-69
2022/06/12 11:49:02;;;;;;;0.50;0.50;;;;;;;-140.05;100.00;61859.38;5094363;28;20191;-71
2022/06/12 11:51:42;;;;;;;0.63;0.63;;;;;;;-140.05;100.00;61859.38;5100258;28;20192;-71
2022/06/12 11:54:34;;;;;;;0.70;0.43;;;;;;;-140.05;100.00;61859.38;5099365;28;20195;-71
2022/06/12 11:57:01;;;;;;;5.33;4.83;;;;;;;-140.05;100.00;61859.38;5094072;28;20289;-72
2022/06/12 11:59:42;;;;;;;2.70;2.50;;;;;;;-140.05;100.00;61859.38;5088838;28;20271;-69
2022/06/12 12:02:30;;;;;;;1.37;1.27;;;;;;;-140.05;100.00;61859.38;5089188;28;20229;-72